sensor_id;sensor_type;location;lat;lon;timestamp;P1;durP1;ratioP1;P2;durP2;ratioP2
4274;SDS011;2151;50.988;11.068;2023-04-26T00:01:16;128.67;;;6.37;;
4274;SDS011;2151;50.988;11.068;2023-04-26T00:03:43;128.77;;;6.63;;
4274;SDS011;2151;50.988;11.068;2023-04-26T00:06:09;126.37;;;6.27;;
4274;SDS011;2151;50.988;11.068;2023-04-26T00:08:37;128.93;;;6.97;;
4274;SDS011;2151;50.988;11.068;2023-04-26T00:11:04;129.03;;;6.80;;
4274;SDS011;2151;50.988;11.068;2023-04-26T00:13:30;135.50;;;7.30;;
4274;SDS011;2151;50.988;11.068;2023-04-26T00:15:56;125.97;;;6.47;;
4274;SDS011;2151;50.988;11.068;2023-04-26T00:18:23;126.37;;;6.80;;
4274;SDS011;2151;50.988;11.068;2023-04-26T00:20:49;130.27;;;6.40;;
4274;SDS011;2151;50.988;11.068;2023-04-26T00:23:16;124.10;;;6.23;;
4274;SDS011;2151;50.988;11.068;2023-04-26T00:25:43;130.83;;;6.97;;
4274;SDS011;2151;50.988;11.068;2023-04-26T00:28:09;126.90;;;7.20;;
4274;SDS011;2151;50.988;11.068;2023-04-26T00:30:36;126.00;;;6.87;;
4274;SDS011;2151;50.988;11.068;2023-04-26T00:33:06;125.07;;;6.87;;
4274;SDS011;2151;50.988;11.068;2023-04-26T00:35:32;131.30;;;6.90;;
4274;SDS011;2151;50.988;11.068;2023-04-26T00:37:59;128.70;;;6.30;;
4274;SDS011;2151;50.988;11.068;2023-04-26T00:40:25;126.27;;;6.27;;
4274;SDS011;2151;50.988;11.068;2023-04-26T00:42:56;132.10;;;7.20;;
4274;SDS011;2151;50.988;11.068;2023-04-26T00:45:22;127.57;;;7.13;;
4274;SDS011;2151;50.988;11.068;2023-04-26T00:47:49;135.47;;;7.73;;
4274;SDS011;2151;50.988;11.068;2023-04-26T00:50:15;128.27;;;6.97;;
4274;SDS011;2151;50.988;11.068;2023-04-26T00:52:42;127.03;;;7.00;;
4274;SDS011;2151;50.988;11.068;2023-04-26T00:55:10;125.30;;;6.60;;
4274;SDS011;2151;50.988;11.068;2023-04-26T00:57:36;129.40;;;6.47;;
4274;SDS011;2151;50.988;11.068;2023-04-26T01:00:04;128.80;;;6.70;;
4274;SDS011;2151;50.988;11.068;2023-04-26T01:02:31;131.77;;;7.20;;
4274;SDS011;2151;50.988;11.068;2023-04-26T01:04:58;129.17;;;6.63;;
4274;SDS011;2151;50.988;11.068;2023-04-26T01:07:25;123.87;;;6.30;;
4274;SDS011;2151;50.988;11.068;2023-04-26T01:09:51;126.50;;;6.60;;
4274;SDS011;2151;50.988;11.068;2023-04-26T01:12:18;130.23;;;7.00;;
4274;SDS011;2151;50.988;11.068;2023-04-26T01:14:44;127.93;;;6.83;;
4274;SDS011;2151;50.988;11.068;2023-04-26T01:17:11;126.47;;;7.10;;
4274;SDS011;2151;50.988;11.068;2023-04-26T01:19:45;130.07;;;6.60;;
4274;SDS011;2151;50.988;11.068;2023-04-26T01:22:11;126.17;;;6.80;;
4274;SDS011;2151;50.988;11.068;2023-04-26T01:24:38;126.57;;;7.00;;
4274;SDS011;2151;50.988;11.068;2023-04-26T01:27:05;127.27;;;6.47;;
4274;SDS011;2151;50.988;11.068;2023-04-26T01:29:32;125.50;;;6.57;;
4274;SDS011;2151;50.988;11.068;2023-04-26T01:31:58;130.20;;;6.87;;
4274;SDS011;2151;50.988;11.068;2023-04-26T01:34:25;126.00;;;6.87;;
4274;SDS011;2151;50.988;11.068;2023-04-26T01:36:51;129.27;;;7.03;;
4274;SDS011;2151;50.988;11.068;2023-04-26T01:39:18;126.13;;;6.33;;
4274;SDS011;2151;50.988;11.068;2023-04-26T01:41:44;139.00;;;7.20;;
4274;SDS011;2151;50.988;11.068;2023-04-26T01:44:11;126.30;;;6.73;;
4274;SDS011;2151;50.988;11.068;2023-04-26T01:46:37;127.87;;;7.23;;
4274;SDS011;2151;50.988;11.068;2023-04-26T01:49:04;135.90;;;6.97;;
4274;SDS011;2151;50.988;11.068;2023-04-26T01:51:30;125.97;;;7.23;;
4274;SDS011;2151;50.988;11.068;2023-04-26T01:53:57;126.60;;;6.97;;
4274;SDS011;2151;50.988;11.068;2023-04-26T01:56:24;125.97;;;6.63;;
4274;SDS011;2151;50.988;11.068;2023-04-26T01:58:51;127.27;;;6.63;;
4274;SDS011;2151;50.988;11.068;2023-04-26T02:01:17;129.90;;;6.90;;
4274;SDS011;2151;50.988;11.068;2023-04-26T02:03:44;125.13;;;7.13;;
4274;SDS011;2151;50.988;11.068;2023-04-26T02:06:11;136.83;;;7.10;;
4274;SDS011;2151;50.988;11.068;2023-04-26T02:08:37;124.40;;;6.47;;
4274;SDS011;2151;50.988;11.068;2023-04-26T02:11:03;124.53;;;6.50;;
4274;SDS011;2151;50.988;11.068;2023-04-26T02:13:30;124.77;;;6.53;;
4274;SDS011;2151;50.988;11.068;2023-04-26T02:15:57;126.07;;;6.83;;
4274;SDS011;2151;50.988;11.068;2023-04-26T02:18:24;126.60;;;6.93;;
4274;SDS011;2151;50.988;11.068;2023-04-26T02:20:50;136.20;;;6.97;;
4274;SDS011;2151;50.988;11.068;2023-04-26T02:23:17;129.97;;;7.30;;
4274;SDS011;2151;50.988;11.068;2023-04-26T02:25:47;134.73;;;7.30;;
4274;SDS011;2151;50.988;11.068;2023-04-26T02:28:14;128.57;;;6.67;;
4274;SDS011;2151;50.988;11.068;2023-04-26T02:30:41;130.17;;;6.77;;
4274;SDS011;2151;50.988;11.068;2023-04-26T02:33:08;125.37;;;6.57;;
4274;SDS011;2151;50.988;11.068;2023-04-26T02:35:34;126.73;;;6.97;;
4274;SDS011;2151;50.988;11.068;2023-04-26T02:38:02;127.30;;;7.20;;
4274;SDS011;2151;50.988;11.068;2023-04-26T02:40:29;125.10;;;6.70;;
4274;SDS011;2151;50.988;11.068;2023-04-26T02:42:55;130.70;;;6.70;;
4274;SDS011;2151;50.988;11.068;2023-04-26T02:45:22;128.90;;;6.83;;
4274;SDS011;2151;50.988;11.068;2023-04-26T02:47:49;132.37;;;7.07;;
4274;SDS011;2151;50.988;11.068;2023-04-26T02:50:15;126.30;;;7.00;;
4274;SDS011;2151;50.988;11.068;2023-04-26T02:52:42;128.40;;;7.10;;
4274;SDS011;2151;50.988;11.068;2023-04-26T02:55:08;134.00;;;7.30;;
4274;SDS011;2151;50.988;11.068;2023-04-26T02:57:35;128.90;;;7.20;;
4274;SDS011;2151;50.988;11.068;2023-04-26T03:00:01;126.77;;;7.20;;
4274;SDS011;2151;50.988;11.068;2023-04-26T03:02:30;127.77;;;6.90;;
4274;SDS011;2151;50.988;11.068;2023-04-26T03:04:57;128.90;;;7.30;;
4274;SDS011;2151;50.988;11.068;2023-04-26T03:07:24;132.20;;;7.57;;
4274;SDS011;2151;50.988;11.068;2023-04-26T03:09:51;128.37;;;7.07;;
4274;SDS011;2151;50.988;11.068;2023-04-26T03:12:17;129.60;;;7.10;;
4274;SDS011;2151;50.988;11.068;2023-04-26T03:14:43;127.80;;;7.10;;
4274;SDS011;2151;50.988;11.068;2023-04-26T03:17:10;129.03;;;7.33;;
4274;SDS011;2151;50.988;11.068;2023-04-26T03:19:37;130.20;;;6.93;;
4274;SDS011;2151;50.988;11.068;2023-04-26T03:22:03;129.40;;;9.93;;
4274;SDS011;2151;50.988;11.068;2023-04-26T03:24:30;133.53;;;7.50;;
4274;SDS011;2151;50.988;11.068;2023-04-26T03:26:56;129.07;;;7.73;;
4274;SDS011;2151;50.988;11.068;2023-04-26T03:29:24;129.00;;;7.60;;
4274;SDS011;2151;50.988;11.068;2023-04-26T03:31:50;128.10;;;7.43;;
4274;SDS011;2151;50.988;11.068;2023-04-26T03:34:17;131.77;;;7.47;;
4274;SDS011;2151;50.988;11.068;2023-04-26T03:36:43;126.67;;;7.10;;
4274;SDS011;2151;50.988;11.068;2023-04-26T03:39:09;127.00;;;7.50;;
4274;SDS011;2151;50.988;11.068;2023-04-26T03:41:36;127.47;;;7.30;;
4274;SDS011;2151;50.988;11.068;2023-04-26T03:44:04;128.47;;;7.20;;
4274;SDS011;2151;50.988;11.068;2023-04-26T03:46:31;132.20;;;7.23;;
4274;SDS011;2151;50.988;11.068;2023-04-26T03:48:58;128.67;;;7.63;;
4274;SDS011;2151;50.988;11.068;2023-04-26T03:51:24;127.40;;;7.23;;
4274;SDS011;2151;50.988;11.068;2023-04-26T03:53:52;129.53;;;7.33;;
4274;SDS011;2151;50.988;11.068;2023-04-26T03:56:19;130.90;;;7.80;;
4274;SDS011;2151;50.988;11.068;2023-04-26T03:58:46;126.17;;;7.50;;
4274;SDS011;2151;50.988;11.068;2023-04-26T04:01:12;131.07;;;8.20;;
4274;SDS011;2151;50.988;11.068;2023-04-26T04:03:39;126.47;;;7.53;;
4274;SDS011;2151;50.988;11.068;2023-04-26T04:06:07;132.07;;;8.50;;
4274;SDS011;2151;50.988;11.068;2023-04-26T04:08:33;141.70;;;8.30;;
4274;SDS011;2151;50.988;11.068;2023-04-26T04:10:59;131.30;;;8.30;;
4274;SDS011;2151;50.988;11.068;2023-04-26T04:13:26;128.47;;;7.80;;
4274;SDS011;2151;50.988;11.068;2023-04-26T04:15:53;128.50;;;8.13;;
4274;SDS011;2151;50.988;11.068;2023-04-26T04:18:19;129.30;;;8.10;;
4274;SDS011;2151;50.988;11.068;2023-04-26T04:20:46;130.00;;;7.80;;
4274;SDS011;2151;50.988;11.068;2023-04-26T04:23:12;131.63;;;7.90;;
4274;SDS011;2151;50.988;11.068;2023-04-26T04:25:38;132.60;;;7.80;;
4274;SDS011;2151;50.988;11.068;2023-04-26T04:28:05;131.57;;;7.50;;
4274;SDS011;2151;50.988;11.068;2023-04-26T04:30:32;129.33;;;7.37;;
4274;SDS011;2151;50.988;11.068;2023-04-26T04:32:59;129.17;;;7.77;;
4274;SDS011;2151;50.988;11.068;2023-04-26T04:35:25;127.63;;;7.47;;
4274;SDS011;2151;50.988;11.068;2023-04-26T04:37:54;132.60;;;7.70;;
4274;SDS011;2151;50.988;11.068;2023-04-26T04:40:22;128.73;;;7.90;;
4274;SDS011;2151;50.988;11.068;2023-04-26T04:42:49;138.93;;;8.27;;
4274;SDS011;2151;50.988;11.068;2023-04-26T04:45:16;129.63;;;8.37;;
4274;SDS011;2151;50.988;11.068;2023-04-26T04:47:42;128.17;;;8.07;;
4274;SDS011;2151;50.988;11.068;2023-04-26T04:50:10;130.27;;;7.93;;
4274;SDS011;2151;50.988;11.068;2023-04-26T04:52:37;130.00;;;7.70;;
4274;SDS011;2151;50.988;11.068;2023-04-26T04:55:03;126.77;;;7.90;;
4274;SDS011;2151;50.988;11.068;2023-04-26T04:57:30;136.83;;;8.70;;
4274;SDS011;2151;50.988;11.068;2023-04-26T05:00:00;128.20;;;8.00;;
4274;SDS011;2151;50.988;11.068;2023-04-26T05:02:35;129.37;;;8.10;;
4274;SDS011;2151;50.988;11.068;2023-04-26T05:05:02;134.27;;;7.80;;
4274;SDS011;2151;50.988;11.068;2023-04-26T05:07:30;133.10;;;7.90;;
4274;SDS011;2151;50.988;11.068;2023-04-26T05:09:57;128.57;;;7.93;;
4274;SDS011;2151;50.988;11.068;2023-04-26T05:12:23;131.63;;;8.07;;
4274;SDS011;2151;50.988;11.068;2023-04-26T05:14:50;128.73;;;7.77;;
4274;SDS011;2151;50.988;11.068;2023-04-26T05:17:16;131.37;;;7.87;;
4274;SDS011;2151;50.988;11.068;2023-04-26T05:19:42;129.47;;;8.27;;
4274;SDS011;2151;50.988;11.068;2023-04-26T05:22:09;131.70;;;8.73;;
4274;SDS011;2151;50.988;11.068;2023-04-26T05:24:35;132.80;;;7.90;;
4274;SDS011;2151;50.988;11.068;2023-04-26T05:27:01;131.17;;;8.10;;
4274;SDS011;2151;50.988;11.068;2023-04-26T05:29:29;132.93;;;8.17;;
4274;SDS011;2151;50.988;11.068;2023-04-26T05:31:58;130.67;;;8.60;;
4274;SDS011;2151;50.988;11.068;2023-04-26T05:34:25;129.27;;;8.33;;
4274;SDS011;2151;50.988;11.068;2023-04-26T05:36:52;129.47;;;8.20;;
4274;SDS011;2151;50.988;11.068;2023-04-26T05:39:18;131.87;;;7.87;;
4274;SDS011;2151;50.988;11.068;2023-04-26T05:41:46;130.10;;;7.97;;
4274;SDS011;2151;50.988;11.068;2023-04-26T05:44:12;129.00;;;7.33;;
4274;SDS011;2151;50.988;11.068;2023-04-26T05:46:39;128.87;;;7.37;;
4274;SDS011;2151;50.988;11.068;2023-04-26T05:49:06;128.57;;;7.17;;
4274;SDS011;2151;50.988;11.068;2023-04-26T05:51:32;131.50;;;8.60;;
4274;SDS011;2151;50.988;11.068;2023-04-26T05:53:59;132.23;;;8.50;;
4274;SDS011;2151;50.988;11.068;2023-04-26T05:56:25;131.37;;;8.27;;
4274;SDS011;2151;50.988;11.068;2023-04-26T05:58:52;130.80;;;7.63;;
4274;SDS011;2151;50.988;11.068;2023-04-26T06:01:18;131.53;;;8.20;;
4274;SDS011;2151;50.988;11.068;2023-04-26T06:03:45;132.17;;;7.67;;
4274;SDS011;2151;50.988;11.068;2023-04-26T06:06:12;127.50;;;7.80;;
4274;SDS011;2151;50.988;11.068;2023-04-26T06:08:38;131.83;;;7.97;;
4274;SDS011;2151;50.988;11.068;2023-04-26T06:11:05;129.90;;;8.00;;
4274;SDS011;2151;50.988;11.068;2023-04-26T06:13:31;130.70;;;7.50;;
4274;SDS011;2151;50.988;11.068;2023-04-26T06:15:58;129.40;;;7.90;;
4274;SDS011;2151;50.988;11.068;2023-04-26T06:18:24;130.47;;;8.40;;
4274;SDS011;2151;50.988;11.068;2023-04-26T06:20:51;133.20;;;7.30;;
4274;SDS011;2151;50.988;11.068;2023-04-26T06:23:17;140.40;;;8.10;;
4274;SDS011;2151;50.988;11.068;2023-04-26T06:25:45;127.30;;;6.93;;
4274;SDS011;2151;50.988;11.068;2023-04-26T06:28:12;135.07;;;8.30;;
4274;SDS011;2151;50.988;11.068;2023-04-26T06:30:38;137.23;;;8.17;;
4274;SDS011;2151;50.988;11.068;2023-04-26T06:33:05;131.10;;;8.53;;
4274;SDS011;2151;50.988;11.068;2023-04-26T06:35:31;129.77;;;7.70;;
4274;SDS011;2151;50.988;11.068;2023-04-26T06:37:58;129.10;;;7.87;;
4274;SDS011;2151;50.988;11.068;2023-04-26T06:40:24;127.53;;;7.70;;
4274;SDS011;2151;50.988;11.068;2023-04-26T06:42:50;134.20;;;7.80;;
4274;SDS011;2151;50.988;11.068;2023-04-26T06:45:17;128.63;;;7.73;;
4274;SDS011;2151;50.988;11.068;2023-04-26T06:47:44;133.53;;;6.90;;
4274;SDS011;2151;50.988;11.068;2023-04-26T06:50:10;129.37;;;7.40;;
4274;SDS011;2151;50.988;11.068;2023-04-26T06:52:36;136.40;;;7.63;;
4274;SDS011;2151;50.988;11.068;2023-04-26T06:55:03;130.57;;;7.10;;
4274;SDS011;2151;50.988;11.068;2023-04-26T06:57:30;127.77;;;7.60;;
4274;SDS011;2151;50.988;11.068;2023-04-26T06:59:56;131.27;;;7.20;;
4274;SDS011;2151;50.988;11.068;2023-04-26T07:02:23;126.37;;;6.67;;
4274;SDS011;2151;50.988;11.068;2023-04-26T07:04:50;129.97;;;6.90;;
4274;SDS011;2151;50.988;11.068;2023-04-26T07:07:17;128.77;;;6.90;;
4274;SDS011;2151;50.988;11.068;2023-04-26T07:09:43;126.57;;;6.63;;
4274;SDS011;2151;50.988;11.068;2023-04-26T07:12:10;131.63;;;7.10;;
4274;SDS011;2151;50.988;11.068;2023-04-26T07:14:37;133.80;;;6.80;;
4274;SDS011;2151;50.988;11.068;2023-04-26T07:17:08;132.77;;;6.80;;
4274;SDS011;2151;50.988;11.068;2023-04-26T07:19:35;124.37;;;5.97;;
4274;SDS011;2151;50.988;11.068;2023-04-26T07:22:01;123.97;;;6.33;;
4274;SDS011;2151;50.988;11.068;2023-04-26T07:24:28;127.17;;;6.50;;
4274;SDS011;2151;50.988;11.068;2023-04-26T07:26:55;130.03;;;6.90;;
4274;SDS011;2151;50.988;11.068;2023-04-26T07:29:22;125.77;;;6.20;;
4274;SDS011;2151;50.988;11.068;2023-04-26T07:31:48;129.10;;;6.83;;
4274;SDS011;2151;50.988;11.068;2023-04-26T07:34:15;134.00;;;6.87;;
4274;SDS011;2151;50.988;11.068;2023-04-26T07:36:41;124.37;;;6.50;;
4274;SDS011;2151;50.988;11.068;2023-04-26T07:39:08;130.83;;;6.70;;
4274;SDS011;2151;50.988;11.068;2023-04-26T07:41:35;129.73;;;6.33;;
4274;SDS011;2151;50.988;11.068;2023-04-26T07:44:02;123.30;;;6.23;;
4274;SDS011;2151;50.988;11.068;2023-04-26T07:46:29;123.57;;;6.00;;
4274;SDS011;2151;50.988;11.068;2023-04-26T07:48:55;133.07;;;6.57;;
4274;SDS011;2151;50.988;11.068;2023-04-26T07:51:21;124.90;;;5.80;;
4274;SDS011;2151;50.988;11.068;2023-04-26T07:53:48;125.60;;;6.27;;
4274;SDS011;2151;50.988;11.068;2023-04-26T07:56:16;124.47;;;6.50;;
4274;SDS011;2151;50.988;11.068;2023-04-26T07:58:42;123.37;;;5.73;;
4274;SDS011;2151;50.988;11.068;2023-04-26T08:01:09;129.40;;;6.00;;
4274;SDS011;2151;50.988;11.068;2023-04-26T08:03:36;123.20;;;6.03;;
4274;SDS011;2151;50.988;11.068;2023-04-26T08:06:03;122.10;;;6.27;;
4274;SDS011;2151;50.988;11.068;2023-04-26T08:08:31;126.10;;;6.60;;
4274;SDS011;2151;50.988;11.068;2023-04-26T08:10:58;127.73;;;6.27;;
4274;SDS011;2151;50.988;11.068;2023-04-26T08:13:25;124.67;;;6.10;;
4274;SDS011;2151;50.988;11.068;2023-04-26T08:15:54;129.80;;;6.23;;
4274;SDS011;2151;50.988;11.068;2023-04-26T08:18:20;124.57;;;6.03;;
4274;SDS011;2151;50.988;11.068;2023-04-26T08:20:47;121.50;;;5.83;;
4274;SDS011;2151;50.988;11.068;2023-04-26T08:23:13;121.87;;;6.20;;
4274;SDS011;2151;50.988;11.068;2023-04-26T08:25:40;136.20;;;7.70;;
4274;SDS011;2151;50.988;11.068;2023-04-26T08:28:06;131.80;;;6.63;;
4274;SDS011;2151;50.988;11.068;2023-04-26T08:30:34;127.87;;;7.20;;
4274;SDS011;2151;50.988;11.068;2023-04-26T08:33:00;125.50;;;6.60;;
4274;SDS011;2151;50.988;11.068;2023-04-26T08:35:26;126.33;;;6.10;;
4274;SDS011;2151;50.988;11.068;2023-04-26T08:37:53;127.57;;;6.00;;
4274;SDS011;2151;50.988;11.068;2023-04-26T08:40:21;125.87;;;6.20;;
4274;SDS011;2151;50.988;11.068;2023-04-26T08:42:47;123.13;;;6.17;;
4274;SDS011;2151;50.988;11.068;2023-04-26T08:45:14;121.47;;;6.40;;
4274;SDS011;2151;50.988;11.068;2023-04-26T08:47:48;122.40;;;6.10;;
4274;SDS011;2151;50.988;11.068;2023-04-26T08:50:17;122.47;;;6.53;;
4274;SDS011;2151;50.988;11.068;2023-04-26T08:52:44;128.77;;;6.33;;
4274;SDS011;2151;50.988;11.068;2023-04-26T08:55:12;124.27;;;6.53;;
4274;SDS011;2151;50.988;11.068;2023-04-26T08:57:39;128.57;;;6.07;;
4274;SDS011;2151;50.988;11.068;2023-04-26T09:00:06;124.77;;;6.10;;
4274;SDS011;2151;50.988;11.068;2023-04-26T09:02:45;121.87;;;6.10;;
4274;SDS011;2151;50.988;11.068;2023-04-26T09:05:12;119.97;;;5.30;;
4274;SDS011;2151;50.988;11.068;2023-04-26T09:07:45;132.00;;;6.10;;
4274;SDS011;2151;50.988;11.068;2023-04-26T09:10:13;123.70;;;6.17;;
4274;SDS011;2151;50.988;11.068;2023-04-26T09:12:42;125.37;;;6.13;;
4274;SDS011;2151;50.988;11.068;2023-04-26T09:15:08;126.00;;;5.80;;
4274;SDS011;2151;50.988;11.068;2023-04-26T09:17:36;121.23;;;6.07;;
4274;SDS011;2151;50.988;11.068;2023-04-26T09:22:45;125.77;;;5.70;;
4274;SDS011;2151;50.988;11.068;2023-04-26T09:25:12;123.40;;;5.60;;
4274;SDS011;2151;50.988;11.068;2023-04-26T09:27:40;120.90;;;5.60;;
4274;SDS011;2151;50.988;11.068;2023-04-26T09:30:12;126.03;;;6.30;;
4274;SDS011;2151;50.988;11.068;2023-04-26T09:35:08;121.43;;;5.73;;
4274;SDS011;2151;50.988;11.068;2023-04-26T09:37:50;122.37;;;5.73;;
4274;SDS011;2151;50.988;11.068;2023-04-26T09:40:26;125.87;;;5.97;;
4274;SDS011;2151;50.988;11.068;2023-04-26T09:43:06;128.03;;;6.50;;
4274;SDS011;2151;50.988;11.068;2023-04-26T09:45:41;122.97;;;6.17;;
4274;SDS011;2151;50.988;11.068;2023-04-26T09:50:38;127.63;;;6.17;;
4274;SDS011;2151;50.988;11.068;2023-04-26T09:53:04;124.37;;;5.70;;
4274;SDS011;2151;50.988;11.068;2023-04-26T09:55:32;120.50;;;5.93;;
4274;SDS011;2151;50.988;11.068;2023-04-26T09:58:06;123.30;;;6.20;;
4274;SDS011;2151;50.988;11.068;2023-04-26T10:00:33;124.00;;;6.10;;
4274;SDS011;2151;50.988;11.068;2023-04-26T10:02:59;122.70;;;5.60;;
4274;SDS011;2151;50.988;11.068;2023-04-26T10:05:26;123.57;;;6.20;;
4274;SDS011;2151;50.988;11.068;2023-04-26T10:07:53;124.07;;;6.53;;
4274;SDS011;2151;50.988;11.068;2023-04-26T10:10:19;126.40;;;6.00;;
4274;SDS011;2151;50.988;11.068;2023-04-26T10:12:46;124.73;;;7.17;;
4274;SDS011;2151;50.988;11.068;2023-04-26T10:15:13;121.10;;;6.07;;
4274;SDS011;2151;50.988;11.068;2023-04-26T10:17:40;126.40;;;5.80;;
4274;SDS011;2151;50.988;11.068;2023-04-26T10:20:08;122.20;;;5.80;;
4274;SDS011;2151;50.988;11.068;2023-04-26T10:22:42;124.50;;;6.23;;
4274;SDS011;2151;50.988;11.068;2023-04-26T10:25:08;123.17;;;6.00;;
4274;SDS011;2151;50.988;11.068;2023-04-26T10:30:14;129.57;;;6.10;;
4274;SDS011;2151;50.988;11.068;2023-04-26T10:35:17;127.30;;;6.30;;
4274;SDS011;2151;50.988;11.068;2023-04-26T10:40:34;125.07;;;5.80;;
4274;SDS011;2151;50.988;11.068;2023-04-26T10:45:35;124.10;;;5.80;;
4274;SDS011;2151;50.988;11.068;2023-04-26T10:56:10;125.90;;;6.07;;
4274;SDS011;2151;50.988;11.068;2023-04-26T10:58:39;122.97;;;5.70;;
4274;SDS011;2151;50.988;11.068;2023-04-26T11:01:06;120.83;;;5.63;;
4274;SDS011;2151;50.988;11.068;2023-04-26T11:03:33;120.57;;;5.70;;
4274;SDS011;2151;50.988;11.068;2023-04-26T11:06:04;123.20;;;5.80;;
4274;SDS011;2151;50.988;11.068;2023-04-26T11:08:31;126.13;;;5.80;;
4274;SDS011;2151;50.988;11.068;2023-04-26T11:10:58;119.47;;;5.70;;
4274;SDS011;2151;50.988;11.068;2023-04-26T11:13:30;121.50;;;5.67;;
4274;SDS011;2151;50.988;11.068;2023-04-26T11:16:00;121.73;;;5.80;;
4274;SDS011;2151;50.988;11.068;2023-04-26T11:18:30;120.70;;;6.03;;
4274;SDS011;2151;50.988;11.068;2023-04-26T11:20:57;120.60;;;5.43;;
4274;SDS011;2151;50.988;11.068;2023-04-26T11:23:24;119.63;;;5.63;;
4274;SDS011;2151;50.988;11.068;2023-04-26T11:25:51;120.87;;;5.53;;
4274;SDS011;2151;50.988;11.068;2023-04-26T11:28:19;119.10;;;5.20;;
4274;SDS011;2151;50.988;11.068;2023-04-26T11:30:45;121.90;;;5.83;;
4274;SDS011;2151;50.988;11.068;2023-04-26T11:33:17;119.90;;;5.87;;
4274;SDS011;2151;50.988;11.068;2023-04-26T11:35:45;121.27;;;5.27;;
4274;SDS011;2151;50.988;11.068;2023-04-26T11:38:12;121.40;;;5.50;;
4274;SDS011;2151;50.988;11.068;2023-04-26T11:40:39;119.57;;;5.70;;
4274;SDS011;2151;50.988;11.068;2023-04-26T11:43:07;122.23;;;5.60;;
4274;SDS011;2151;50.988;11.068;2023-04-26T11:45:34;122.80;;;6.10;;
4274;SDS011;2151;50.988;11.068;2023-04-26T11:48:02;118.90;;;5.50;;
4274;SDS011;2151;50.988;11.068;2023-04-26T11:50:32;120.17;;;5.40;;
4274;SDS011;2151;50.988;11.068;2023-04-26T11:53:00;121.87;;;5.80;;
4274;SDS011;2151;50.988;11.068;2023-04-26T11:55:27;121.93;;;5.83;;
4274;SDS011;2151;50.988;11.068;2023-04-26T11:57:54;125.77;;;5.80;;
4274;SDS011;2151;50.988;11.068;2023-04-26T12:00:22;121.47;;;5.63;;
4274;SDS011;2151;50.988;11.068;2023-04-26T12:02:49;125.40;;;6.20;;
4274;SDS011;2151;50.988;11.068;2023-04-26T12:05:24;123.27;;;5.60;;
4274;SDS011;2151;50.988;11.068;2023-04-26T12:07:51;119.37;;;5.73;;
4274;SDS011;2151;50.988;11.068;2023-04-26T12:10:19;122.20;;;5.57;;
4274;SDS011;2151;50.988;11.068;2023-04-26T12:12:47;123.23;;;5.33;;
4274;SDS011;2151;50.988;11.068;2023-04-26T12:15:14;119.57;;;5.60;;
4274;SDS011;2151;50.988;11.068;2023-04-26T12:17:50;120.27;;;5.53;;
4274;SDS011;2151;50.988;11.068;2023-04-26T12:20:16;123.13;;;5.53;;
4274;SDS011;2151;50.988;11.068;2023-04-26T12:25:28;120.47;;;5.50;;
4274;SDS011;2151;50.988;11.068;2023-04-26T12:27:55;121.97;;;6.20;;
4274;SDS011;2151;50.988;11.068;2023-04-26T12:30:22;120.40;;;6.00;;
4274;SDS011;2151;50.988;11.068;2023-04-26T12:32:49;118.60;;;5.50;;
4274;SDS011;2151;50.988;11.068;2023-04-26T12:35:16;120.07;;;5.60;;
4274;SDS011;2151;50.988;11.068;2023-04-26T12:37:42;126.80;;;5.87;;
4274;SDS011;2151;50.988;11.068;2023-04-26T12:40:09;119.30;;;5.37;;
4274;SDS011;2151;50.988;11.068;2023-04-26T12:42:37;120.20;;;5.87;;
4274;SDS011;2151;50.988;11.068;2023-04-26T12:45:03;121.67;;;5.37;;
4274;SDS011;2151;50.988;11.068;2023-04-26T12:47:30;119.73;;;5.57;;
4274;SDS011;2151;50.988;11.068;2023-04-26T12:49:57;119.63;;;5.70;;
4274;SDS011;2151;50.988;11.068;2023-04-26T12:52:26;118.47;;;5.50;;
4274;SDS011;2151;50.988;11.068;2023-04-26T12:54:53;117.93;;;5.27;;
4274;SDS011;2151;50.988;11.068;2023-04-26T12:57:19;119.27;;;5.47;;
4274;SDS011;2151;50.988;11.068;2023-04-26T12:59:46;119.47;;;5.60;;
4274;SDS011;2151;50.988;11.068;2023-04-26T13:02:13;119.87;;;5.83;;
4274;SDS011;2151;50.988;11.068;2023-04-26T13:04:39;119.67;;;5.40;;
4274;SDS011;2151;50.988;11.068;2023-04-26T13:07:07;119.10;;;5.67;;
4274;SDS011;2151;50.988;11.068;2023-04-26T13:09:33;117.50;;;5.27;;
4274;SDS011;2151;50.988;11.068;2023-04-26T13:12:00;122.67;;;5.80;;
4274;SDS011;2151;50.988;11.068;2023-04-26T13:14:26;119.70;;;5.27;;
4274;SDS011;2151;50.988;11.068;2023-04-26T13:16:53;120.17;;;5.33;;
4274;SDS011;2151;50.988;11.068;2023-04-26T13:19:19;120.33;;;5.77;;
4274;SDS011;2151;50.988;11.068;2023-04-26T13:21:45;123.03;;;5.53;;
4274;SDS011;2151;50.988;11.068;2023-04-26T13:24:12;120.07;;;5.83;;
4274;SDS011;2151;50.988;11.068;2023-04-26T13:26:38;119.40;;;5.80;;
4274;SDS011;2151;50.988;11.068;2023-04-26T13:29:05;119.40;;;5.93;;
4274;SDS011;2151;50.988;11.068;2023-04-26T13:31:31;125.50;;;5.67;;
4274;SDS011;2151;50.988;11.068;2023-04-26T13:33:58;119.60;;;5.60;;
4274;SDS011;2151;50.988;11.068;2023-04-26T13:36:24;121.33;;;5.53;;
4274;SDS011;2151;50.988;11.068;2023-04-26T13:38:51;121.10;;;5.73;;
4274;SDS011;2151;50.988;11.068;2023-04-26T13:41:17;119.93;;;5.70;;
4274;SDS011;2151;50.988;11.068;2023-04-26T13:43:44;119.50;;;5.30;;
4274;SDS011;2151;50.988;11.068;2023-04-26T13:46:10;122.30;;;5.50;;
4274;SDS011;2151;50.988;11.068;2023-04-26T13:48:37;121.70;;;5.67;;
4274;SDS011;2151;50.988;11.068;2023-04-26T13:51:04;122.17;;;5.80;;
4274;SDS011;2151;50.988;11.068;2023-04-26T13:53:32;118.50;;;5.47;;
4274;SDS011;2151;50.988;11.068;2023-04-26T13:55:59;119.77;;;5.60;;
4274;SDS011;2151;50.988;11.068;2023-04-26T13:58:26;120.67;;;5.83;;
4274;SDS011;2151;50.988;11.068;2023-04-26T14:00:52;117.87;;;5.30;;
4274;SDS011;2151;50.988;11.068;2023-04-26T14:03:19;119.23;;;5.83;;
4274;SDS011;2151;50.988;11.068;2023-04-26T14:05:45;118.70;;;5.70;;
4274;SDS011;2151;50.988;11.068;2023-04-26T14:08:12;122.40;;;6.43;;
4274;SDS011;2151;50.988;11.068;2023-04-26T14:10:39;120.50;;;5.70;;
4274;SDS011;2151;50.988;11.068;2023-04-26T14:13:06;118.50;;;5.97;;
4274;SDS011;2151;50.988;11.068;2023-04-26T14:15:32;118.43;;;5.60;;
4274;SDS011;2151;50.988;11.068;2023-04-26T14:17:59;122.50;;;5.47;;
4274;SDS011;2151;50.988;11.068;2023-04-26T14:20:25;119.17;;;5.70;;
4274;SDS011;2151;50.988;11.068;2023-04-26T14:22:52;118.43;;;5.63;;
4274;SDS011;2151;50.988;11.068;2023-04-26T14:25:18;119.67;;;6.20;;
4274;SDS011;2151;50.988;11.068;2023-04-26T14:27:45;122.87;;;5.70;;
4274;SDS011;2151;50.988;11.068;2023-04-26T14:30:11;118.27;;;5.37;;
4274;SDS011;2151;50.988;11.068;2023-04-26T14:32:38;117.40;;;5.33;;
4274;SDS011;2151;50.988;11.068;2023-04-26T14:35:08;124.27;;;6.10;;
4274;SDS011;2151;50.988;11.068;2023-04-26T14:37:34;127.60;;;6.33;;
4274;SDS011;2151;50.988;11.068;2023-04-26T14:40:02;119.30;;;5.80;;
4274;SDS011;2151;50.988;11.068;2023-04-26T14:42:29;121.47;;;5.70;;
4274;SDS011;2151;50.988;11.068;2023-04-26T14:44:58;120.67;;;6.03;;
4274;SDS011;2151;50.988;11.068;2023-04-26T14:47:25;120.90;;;6.03;;
4274;SDS011;2151;50.988;11.068;2023-04-26T14:49:51;120.97;;;6.67;;
4274;SDS011;2151;50.988;11.068;2023-04-26T14:52:17;123.00;;;6.20;;
4274;SDS011;2151;50.988;11.068;2023-04-26T14:54:44;119.93;;;5.87;;
4274;SDS011;2151;50.988;11.068;2023-04-26T14:57:10;123.63;;;6.30;;
4274;SDS011;2151;50.988;11.068;2023-04-26T14:59:37;123.80;;;5.77;;
4274;SDS011;2151;50.988;11.068;2023-04-26T15:02:03;120.23;;;6.10;;